Time;durP1;ratioP1;P1;durP2;ratioP2;P2;SDS_P1;SDS_P2;PMS_P1;PMS_P2;Temp;Humidity;BMP_temperature;BMP_pressure;BME280_temperature;BME280_humidity;BME280_pressure;Samples;Min_cycle;Max_cycle;Signal;HPM_P1;HPM_P2
2022/05/02 00:00:15;;;;;;;6.60;3.47;;;10.30;99.90;;;;;;4929013;29;20028;-86
2022/05/02 00:02:41;;;;;;;6.72;3.40;;;10.30;99.90;;;;;;4937760;28;20041;-85
2022/05/02 00:05:07;;;;;;;5.53;3.50;;;10.30;99.90;;;;;;4932864;28;20426;-87
2022/05/02 00:07:33;;;;;;;6.70;3.53;;;10.30;99.90;;;;;;4978589;23;20622;-88
2022/05/02 00:09:59;;;;;;;6.80;4.13;;;10.40;99.90;;;;;;4948660;28;20039;-89
2022/05/02 00:12:25;;;;;;;6.35;3.92;;;10.40;99.90;;;;;;4949269;28;20581;-88
2022/05/02 00:14:51;;;;;;;6.68;3.95;;;10.30;99.90;;;;;;4943883;28;20035;-88
2022/05/02 00:17:17;;;;;;;8.05;4.15;;;10.30;99.90;;;;;;4969106;28;20086;-88
2022/05/02 00:19:43;;;;;;;6.70;3.50;;;10.30;99.90;;;;;;4969233;28;20023;-88
2022/05/02 00:22:08;;;;;;;10.35;4.78;;;10.30;99.90;;;;;;4940559;28;20028;-88
2022/05/02 00:24:34;;;;;;;6.53;3.65;;;10.20;99.90;;;;;;4966334;28;20038;-88
2022/05/02 00:27:00;;;;;;;9.68;4.20;;;10.20;99.90;;;;;;4956900;28;20510;-88
2022/05/02 00:29:26;;;;;;;7.88;3.80;;;10.10;99.90;;;;;;4951622;28;20023;-89
2022/05/02 00:31:52;;;;;;;8.18;4.20;;;10.20;99.90;;;;;;4960416;28;20743;-88
2022/05/02 00:34:18;;;;;;;7.55;3.83;;;10.10;99.90;;;;;;4941077;28;20034;-89
2022/05/02 00:36:43;;;;;;;7.85;4.22;;;10.00;99.90;;;;;;4955036;28;20023;-89
2022/05/02 00:39:09;;;;;;;6.57;4.57;;;10.00;99.90;;;;;;4947710;28;20504;-89
2022/05/02 00:41:35;;;;;;;8.40;4.50;;;10.00;99.90;;;;;;4966200;28;20491;-89
2022/05/02 00:44:01;;;;;;;9.50;4.93;;;10.00;99.90;;;;;;4950914;28;20047;-88
2022/05/02 00:46:27;;;;;;;8.07;4.50;;;9.90;99.90;;;;;;4941159;29;20035;-89
2022/05/02 00:48:53;;;;;;;7.32;4.47;;;10.00;99.90;;;;;;4946232;28;20023;-88
2022/05/02 00:51:20;;;;;;;8.57;4.57;;;9.90;99.90;;;;;;4962596;28;20032;-89
2022/05/02 00:53:51;;;;;;;8.52;4.25;;;9.90;99.90;;;;;;4941792;28;20027;-88
2022/05/02 00:56:18;;;;;;;7.10;3.80;;;9.90;99.90;;;;;;4943626;28;20483;-89
2022/05/02 00:58:44;;;;;;;8.00;4.20;;;9.90;99.90;;;;;;4948307;28;20054;-88
2022/05/02 01:01:10;;;;;;;8.70;4.32;;;9.90;99.90;;;;;;4959842;28;20494;-88
2022/05/02 01:03:36;;;;;;;7.97;4.10;;;9.90;99.90;;;;;;4948483;28;20042;-88
2022/05/02 01:08:47;;;;;;;8.10;4.85;;;9.90;99.90;;;;;;4968117;28;20130;-88
2022/05/02 01:11:15;;;;;;;7.25;4.53;;;9.80;99.90;;;;;;4970526;28;20105;-89
2022/05/02 01:13:46;;;;;;;9.57;4.25;;;9.80;99.90;;;;;;4975744;28;20178;-88
2022/05/02 01:16:19;;;;;;;8.02;4.00;;;9.90;99.90;;;;;;4953123;28;20493;-89
2022/05/02 01:18:48;;;;;;;7.55;3.95;;;9.80;99.90;;;;;;4954316;28;20039;-88
2022/05/02 01:21:21;;;;;;;8.60;4.20;;;9.80;99.90;;;;;;4954440;28;20034;-88
2022/05/02 01:23:49;;;;;;;8.13;5.00;;;9.80;99.90;;;;;;4950861;28;20082;-88
2022/05/02 01:26:15;;;;;;;8.25;4.75;;;9.70;99.90;;;;;;4967328;28;20054;-89
2022/05/02 01:28:43;;;;;;;8.35;4.38;;;9.80;99.90;;;;;;4969235;28;20517;-88
2022/05/02 01:31:09;;;;;;;7.78;4.05;;;9.80;99.90;;;;;;4954428;28;20074;-88
2022/05/02 01:33:35;;;;;;;9.98;4.93;;;9.80;99.90;;;;;;4969401;28;20027;-87
2022/05/02 01:36:02;;;;;;;9.02;4.57;;;9.80;99.90;;;;;;4966096;28;20037;-89
2022/05/02 01:38:28;;;;;;;8.52;4.47;;;9.80;99.90;;;;;;4953267;28;20035;-88
2022/05/02 01:40:53;;;;;;;8.30;4.20;;;9.80;99.90;;;;;;4947784;28;20117;-88
2022/05/02 01:43:19;;;;;;;8.15;4.60;;;9.90;99.90;;;;;;4970949;28;20035;-88
2022/05/02 01:45:45;;;;;;;7.78;4.55;;;10.00;99.90;;;;;;4937176;28;20032;-89
2022/05/02 01:48:10;;;;;;;7.80;4.15;;;9.90;99.90;;;;;;4968295;28;20054;-88
2022/05/02 01:50:36;;;;;;;8.68;4.28;;;9.90;99.90;;;;;;4951407;28;20062;-87
2022/05/02 01:53:10;;;;;;;7.43;4.00;;;10.00;99.90;;;;;;4972631;28;20038;-89
2022/05/02 01:55:36;;;;;;;7.63;4.38;;;10.00;99.90;;;;;;4958276;28;20073;-88
2022/05/02 01:58:02;;;;;;;9.35;4.20;;;10.00;99.90;;;;;;4968202;28;20035;-88
2022/05/02 02:00:27;;;;;;;7.80;4.72;;;10.00;99.90;;;;;;4969753;28;20042;-88
2022/05/02 02:02:53;;;;;;;8.50;4.65;;;10.00;99.90;;;;;;4967042;28;20050;-88
2022/05/02 02:08:04;;;;;;;10.10;4.97;;;9.90;99.90;;;;;;4972943;28;20401;-88
2022/05/02 02:10:29;;;;;;;9.50;4.90;;;9.90;99.90;;;;;;4949819;28;20106;-88
2022/05/02 02:12:57;;;;;;;10.10;5.40;;;9.80;99.90;;;;;;4954595;28;20537;-88
2022/05/02 02:15:23;;;;;;;9.13;5.00;;;9.70;99.90;;;;;;4954985;28;20039;-89
2022/05/02 02:17:49;;;;;;;8.38;4.47;;;9.80;99.90;;;;;;4971755;28;20022;-88
2022/05/02 02:20:17;;;;;;;8.35;4.20;;;9.80;99.90;;;;;;4964438;28;20038;-88
2022/05/02 02:22:43;;;;;;;8.82;4.90;;;9.80;99.90;;;;;;4969154;28;20540;-88
2022/05/02 02:25:08;;;;;;;7.93;4.93;;;9.90;99.90;;;;;;4967872;28;20058;-88
2022/05/02 02:27:34;;;;;;;7.80;4.57;;;9.80;99.90;;;;;;4968999;28;20036;-88
2022/05/02 02:30:08;;;;;;;8.88;4.55;;;9.80;99.90;;;;;;4973257;28;20067;-88
2022/05/02 02:32:33;;;;;;;7.65;3.75;;;9.80;99.90;;;;;;4965367;28;20114;-88
2022/05/02 02:35:02;;;;;;;8.65;4.60;;;9.80;99.90;;;;;;4972365;28;20767;-88
2022/05/02 02:37:34;;;;;;;8.60;4.75;;;9.80;99.90;;;;;;4946442;28;20074;-88
2022/05/02 02:40:00;;;;;;;7.28;4.55;;;9.80;99.90;;;;;;4953966;28;20031;-88
2022/05/02 02:42:29;;;;;;;7.18;4.80;;;9.70;99.90;;;;;;4949928;28;20027;-88
2022/05/02 02:44:54;;;;;;;9.30;5.20;;;9.70;99.90;;;;;;4968657;28;20493;-89
2022/05/02 02:47:20;;;;;;;8.65;4.78;;;9.60;99.90;;;;;;4946122;28;20038;-88
2022/05/02 02:49:48;;;;;;;9.75;5.50;;;9.70;99.90;;;;;;4953255;28;20118;-88
2022/05/02 02:52:14;;;;;;;8.98;5.55;;;9.80;99.90;;;;;;4946306;28;20031;-88
2022/05/02 02:54:39;;;;;;;8.82;4.65;;;9.80;99.90;;;;;;4943260;28;20031;-88
2022/05/02 02:57:05;;;;;;;9.18;5.30;;;9.80;99.90;;;;;;4955396;28;20033;-88
2022/05/02 02:59:31;;;;;;;9.50;5.13;;;9.90;99.90;;;;;;4952534;28;20393;-89
2022/05/02 03:01:57;;;;;;;8.90;4.80;;;9.90;99.90;;;;;;4968209;28;20062;-88
2022/05/02 03:07:12;;;;;;;8.82;4.70;;;10.00;99.90;;;;;;4963312;28;20069;-88
2022/05/02 03:09:49;;;;;;;9.65;5.38;;;10.00;99.90;;;;;;4952127;28;20023;-88
2022/05/02 03:12:17;;;;;;;9.73;5.43;;;10.00;99.90;;;;;;4951209;28;20501;-88
2022/05/02 03:14:43;;;;;;;6.95;3.75;;;10.00;99.90;;;;;;4968340;28;20564;-88
2022/05/02 03:17:09;;;;;;;10.35;4.78;;;10.00;99.90;;;;;;4969437;28;20027;-88
2022/05/02 03:19:35;;;;;;;8.10;4.32;;;10.00;99.90;;;;;;4949453;28;20031;-88
2022/05/02 03:22:00;;;;;;;7.72;4.03;;;9.80;99.90;;;;;;4939888;28;20039;-88
2022/05/02 03:24:26;;;;;;;9.93;5.13;;;9.90;99.90;;;;;;4965596;28;20039;-88
2022/05/02 03:26:52;;;;;;;9.82;5.13;;;10.00;99.90;;;;;;4963788;28;20023;-89
2022/05/02 03:29:29;;;;;;;9.82;5.03;;;9.90;99.90;;;;;;4944156;28;20027;-88
2022/05/02 03:31:57;;;;;;;9.40;4.90;;;10.00;99.90;;;;;;4965115;28;20083;-88
2022/05/02 03:34:26;;;;;;;7.72;4.53;;;10.10;99.90;;;;;;4939971;28;20105;-88
2022/05/02 03:36:51;;;;;;;9.10;5.40;;;10.00;99.90;;;;;;4954006;28;20042;-88
2022/05/02 03:39:17;;;;;;;9.20;5.03;;;10.00;99.90;;;;;;4965849;28;20042;-88
2022/05/02 03:41:49;;;;;;;8.40;4.53;;;10.00;99.90;;;;;;4950054;28;20036;-88
2022/05/02 03:44:15;;;;;;;10.73;4.93;;;10.00;99.90;;;;;;4947969;28;20094;-88
2022/05/02 03:46:44;;;;;;;10.40;4.97;;;10.00;99.90;;;;;;4970562;28;20035;-88
2022/05/02 03:49:10;;;;;;;11.93;5.78;;;10.00;99.90;;;;;;4967906;28;20022;-88
2022/05/02 03:51:35;;;;;;;8.80;5.10;;;10.10;99.90;;;;;;4955645;28;20082;-88
2022/05/02 03:54:04;;;;;;;11.65;4.82;;;10.00;99.90;;;;;;4956710;28;20026;-89
2022/05/02 03:56:30;;;;;;;7.80;4.65;;;10.00;99.90;;;;;;4934084;29;20032;-89
2022/05/02 03:58:55;;;;;;;8.82;5.05;;;10.00;99.90;;;;;;4965151;28;20031;-88
2022/05/02 04:01:21;;;;;;;9.82;5.60;;;10.00;99.90;;;;;;4965667;28;20519;-88
2022/05/02 04:03:46;;;;;;;9.85;5.63;;;10.00;99.90;;;;;;4936137;28;20035;-87
2022/05/02 04:06:15;;;;;;;9.82;5.80;;;10.10;99.90;;;;;;4966802;28;20102;-88
2022/05/02 04:08:41;;;;;;;9.25;5.15;;;10.00;99.90;;;;;;4953820;28;20031;-89
2022/05/02 04:11:07;;;;;;;10.70;5.57;;;10.00;99.90;;;;;;4955304;28;20102;-88
2022/05/02 04:13:32;;;;;;;10.30;5.45;;;10.10;99.90;;;;;;4952447;28;20043;-88
2022/05/02 04:15:58;;;;;;;9.07;4.88;;;10.00;99.90;;;;;;4950876;28;20033;-88
2022/05/02 04:18:24;;;;;;;9.18;5.45;;;10.10;99.90;;;;;;4951387;28;20520;-89
2022/05/02 04:20:49;;;;;;;10.48;5.88;;;10.10;99.90;;;;;;4968406;28;20033;-87
2022/05/02 04:23:15;;;;;;;10.82;5.57;;;10.10;99.90;;;;;;4949634;28;20465;-88
2022/05/02 04:25:41;;;;;;;9.52;5.57;;;10.10;99.90;;;;;;4939712;28;20094;-89
2022/05/02 04:28:10;;;;;;;8.75;5.03;;;10.10;99.90;;;;;;4945051;28;20038;-88
2022/05/02 04:30:37;;;;;;;9.65;5.07;;;10.10;99.90;;;;;;4946921;28;20024;-89
2022/05/02 04:33:05;;;;;;;8.93;4.60;;;10.00;99.90;;;;;;4966171;28;20023;-89
2022/05/02 04:35:41;;;;;;;8.68;4.22;;;10.10;99.90;;;;;;4953016;28;20051;-89
2022/05/02 04:38:07;;;;;;;8.13;4.88;;;10.30;99.90;;;;;;4966762;28;20094;-89
2022/05/02 04:40:32;;;;;;;8.82;4.32;;;10.20;99.90;;;;;;4943370;28;20455;-88
2022/05/02 04:42:59;;;;;;;7.90;3.83;;;10.30;99.90;;;;;;4943224;28;20027;-89
2022/05/02 04:45:27;;;;;;;8.68;4.68;;;10.30;99.90;;;;;;4961110;28;20035;-89
2022/05/02 04:47:53;;;;;;;8.25;4.28;;;10.20;99.90;;;;;;4946894;28;20031;-89
2022/05/02 04:50:19;;;;;;;7.55;4.00;;;10.20;99.90;;;;;;4950703;28;20033;-89
2022/05/02 04:52:44;;;;;;;8.75;4.57;;;10.10;99.90;;;;;;4954493;28;20090;-89
2022/05/02 04:55:10;;;;;;;7.70;4.28;;;10.10;99.90;;;;;;4954024;28;20369;-88
2022/05/02 04:57:36;;;;;;;8.15;4.72;;;10.00;99.90;;;;;;4943818;28;20032;-89
2022/05/02 05:00:05;;;;;;;7.38;4.40;;;10.00;99.90;;;;;;4952152;28;20525;-88
2022/05/02 05:02:31;;;;;;;8.85;4.55;;;10.10;99.90;;;;;;4954340;28;20024;-89
2022/05/02 05:04:59;;;;;;;8.55;4.88;;;10.10;99.90;;;;;;4948182;28;20125;-88
2022/05/02 05:07:27;;;;;;;7.35;4.43;;;10.20;99.90;;;;;;4958554;28;20031;-89
2022/05/02 05:10:09;;;;;;;7.68;4.47;;;10.10;99.90;;;;;;4952445;28;20036;-89
2022/05/02 05:13:03;;;;;;;9.68;5.35;;;10.20;99.90;;;;;;4948295;28;20031;-89
2022/05/02 05:19:25;;;;;;;8.25;4.68;;;10.30;99.90;;;;;;4956938;28;20065;-89
2022/05/02 05:22:10;;;;;;;9.23;4.57;;;10.40;99.90;;;;;;4971480;28;20041;-89
2022/05/02 05:25:02;;;;;;;6.78;4.10;;;10.40;99.90;;;;;;4958199;28;20050;-88
2022/05/02 05:27:56;;;;;;;8.40;4.30;;;10.50;99.90;;;;;;4949406;28;20023;-89
2022/05/02 05:30:40;;;;;;;7.05;3.88;;;10.50;99.90;;;;;;4965795;28;20772;-88
2022/05/02 05:33:44;;;;;;;10.18;4.80;;;10.60;99.90;;;;;;4958644;28;20508;-86
2022/05/02 05:36:29;;;;;;;;;;;;;;;;;;;;;
2022/05/02 05:40:17;;;;;;;10.73;5.25;;;10.70;99.90;;;;;;4970615;28;20041;-86
2022/05/02 05:43:19;;;;;;;10.25;5.70;;;10.90;99.90;;;;;;4960866;28;20406;-85
2022/05/02 05:46:23;;;;;;;12.05;6.32;;;10.90;99.90;;;;;;4943256;28;20031;-86
2022/05/02 05:50:27;;;;;;;;;;;;;;;;;;;;;
2022/05/02 05:52:53;;;;;;;15.05;7.03;;;11.00;99.90;;;;;;4949155;28;20062;-87
2022/05/02 05:56:03;;;;;;;14.27;7.07;;;11.20;99.90;;;;;;4946717;28;20082;-86
2022/05/02 05:58:48;;;;;;;;;;;;;;;;;;;;;
2022/05/02 06:01:43;;;;;;;10.30;6.03;;;11.30;99.90;;;;;;4960648;28;20429;-86
2022/05/02 06:04:20;;;;;;;;;;;;;;;;;;;;;
2022/05/02 06:13:14;;;;;;;13.10;6.25;;;11.60;99.90;;;;;;4914554;29;20044;-88
2022/05/02 06:18:45;;;;;;;8.77;5.22;;;11.60;99.90;;;;;;4970128;28;20045;-86
2022/05/02 06:22:33;;;;;;;11.18;6.25;;;11.50;99.90;;;;;;4937675;29;20038;-87
2022/05/02 06:25:13;;;;;;;12.00;6.18;;;11.30;99.90;;;;;;4954899;28;20395;-86
2022/05/02 06:28:03;;;;;;;10.68;6.00;;;11.50;99.90;;;;;;4940115;29;20047;-88
2022/05/02 06:31:04;;;;;;;;;;;;;;;;;;;;;
2022/05/02 06:33:59;;;;;;;17.80;8.82;;;11.60;99.90;;;;;;4980571;28;20033;-87
2022/05/02 06:36:40;;;;;;;13.27;7.38;;;11.50;99.90;;;;;;4972122;28;20035;-87
2022/05/02 06:39:36;;;;;;;20.30;7.75;;;11.60;99.90;;;;;;4938633;29;20027;-87
2022/05/02 06:42:38;;;;;;;13.10;7.30;;;11.60;99.90;;;;;;4940447;28;20129;-87
2022/05/02 06:45:10;;;;;;;12.30;6.70;;;12.00;99.90;;;;;;4959058;28;20042;-88
2022/05/02 06:48:37;;;;;;;14.25;6.97;;;12.20;99.90;;;;;;4976001;28;20508;-86
2022/05/02 06:51:13;;;;;;;10.60;6.20;;;12.20;99.90;;;;;;4974888;28;20058;-85
2022/05/02 06:54:21;;;;;;;9.95;6.32;;;12.30;99.90;;;;;;4961201;28;20037;-85
2022/05/02 06:57:51;;;;;;;13.30;7.28;;;12.30;99.90;;;;;;4972864;28;20027;-86
2022/05/02 07:00:40;;;;;;;11.25;6.95;;;12.50;99.90;;;;;;4953495;28;20069;-86
2022/05/02 07:03:52;;;;;;;;;;;;;;;;;;;;;
2022/05/02 07:06:43;;;;;;;11.30;7.13;;;12.90;99.90;;;;;;4959421;29;20114;-87
2022/05/02 07:27:19;;;;;;;;;;;;;;;;;;;;;
2022/05/02 07:50:21;;;;;;;11.57;6.22;;;14.80;99.90;;;;;;6247582;22;20019;-84
2022/05/02 07:53:37;;;;;;;;;;;;;;;;;;;;;
2022/05/02 07:57:07;;;;;;;9.93;5.30;;;14.90;99.90;;;;;;6159402;23;20112;-85
2022/05/02 08:00:29;;;;;;;9.38;5.68;;;15.30;99.90;;;;;;6027493;23;20027;-84
2022/05/02 08:03:11;;;;;;;9.77;5.50;;;15.30;99.90;;;;;;6002503;23;20007;-84
2022/05/02 08:06:27;;;;;;;10.20;5.05;;;15.30;99.90;;;;;;6160051;23;20005;-83
2022/05/02 08:09:26;;;;;;;9.15;5.03;;;15.50;99.90;;;;;;6072477;23;20469;-84
2022/05/02 08:12:16;;;;;;;9.15;5.13;;;15.70;99.90;;;;;;6159072;23;20084;-85
2022/05/02 08:15:20;;;;;;;7.72;4.80;;;15.70;99.90;;;;;;6206973;23;20628;-84
2022/05/02 08:18:23;;;;;;;9.60;4.90;;;16.00;99.90;;;;;;6220120;23;20000;-85
2022/05/02 08:21:14;;;;;;;9.15;4.85;;;16.20;99.90;;;;;;6219662;23;20004;-84
2022/05/02 08:28:00;;;;;;;;;;;;;;;;;;;;;
2022/05/02 08:31:11;;;;;;;8.73;4.63;;;16.40;99.90;;;;;;6220064;23;20083;-84
2022/05/02 08:33:51;;;;;;;7.90;3.90;;;16.80;99.90;;;;;;6219137;23;20008;-84
2022/05/02 08:46:54;;;;;;;6.97;3.95;;;17.20;99.90;;;;;;6119336;23;20009;-85
2022/05/02 08:50:07;;;;;;;6.85;3.72;;;17.40;99.90;;;;;;6118971;23;20048;-84
2022/05/02 08:53:14;;;;;;;7.03;3.50;;;17.50;99.90;;;;;;6112811;23;20006;-85
2022/05/02 08:59:37;;;;;;;6.40;3.65;;;17.80;99.90;;;;;;6241171;22;20027;-85
2022/05/02 09:02:44;;;;;;;6.35;3.50;;;17.70;99.90;;;;;;6240656;23;20441;-84
2022/05/02 09:05:31;;;;;;;6.32;3.30;;;17.90;99.90;;;;;;6214487;23;20007;-85
2022/05/02 09:08:31;;;;;;;6.10;3.20;;;18.00;99.90;;;;;;6240341;22;20079;-85
2022/05/02 09:11:47;;;;;;;7.28;3.58;;;17.90;99.80;;;;;;6242176;23;20008;-85
2022/05/02 09:14:37;;;;;;;;;;;;;;;;;;;;;
2022/05/02 09:17:52;;;;;;;6.63;4.20;;;18.40;99.80;;;;;;6234028;22;20091;-85
2022/05/02 09:27:54;;;;;;;6.45;3.72;;;19.20;98.50;;;;;;6091171;23;20010;-85
2022/05/02 09:52:57;;;;;;;5.45;3.15;;;18.30;99.90;;;;;;6243693;22;20028;-86
2022/05/02 10:25:12;;;;;;;5.47;2.88;;;18.20;97.70;;;;;;6148834;23;20415;-84
2022/05/02 10:28:34;;;;;;;;;;;;;;;;;;;;;
2022/05/02 10:34:07;;;;;;;;;;;;;;;;;;;;;
2022/05/02 10:36:50;;;;;;;4.75;2.58;;;19.60;94.40;;;;;;6303125;22;20592;-87
2022/05/02 10:39:48;;;;;;;;;;;;;;;;;;;;;
2022/05/02 10:43:03;;;;;;;4.75;2.85;;;18.70;95.10;;;;;;6286743;22;20079;-86
2022/05/02 10:46:03;;;;;;;5.32;2.50;;;18.90;95.50;;;;;;6245830;22;20007;-87
2022/05/02 10:52:39;;;;;;;5.05;2.33;;;19.40;93.40;;;;;;6155098;23;20340;-86
2022/05/02 10:55:18;;;;;;;5.47;2.67;;;19.60;92.60;;;;;;6198079;22;20000;-86
2022/05/02 10:57:54;;;;;;;4.68;2.60;;;19.80;93.70;;;;;;6271885;22;20007;-87
2022/05/02 11:04:41;;;;;;;;;;;;;;;;;;;;;
2022/05/02 11:07:29;;;;;;;6.97;2.17;;;21.20;90.00;;;;;;6269496;22;20087;-86
2022/05/02 11:10:01;;;;;;;4.95;2.40;;;21.20;90.90;;;;;;6272936;22;20003;-86
2022/05/02 11:13:08;;;;;;;4.40;2.90;;;21.30;90.70;;;;;;6243070;22;19999;-86
2022/05/02 11:21:46;;;;;;;4.68;2.20;;;20.90;89.90;;;;;;6271537;22;20018;-87
2022/05/02 11:24:40;;;;;;;4.82;2.13;;;20.30;90.90;;;;;;6272876;22;20006;-86
2022/05/02 11:27:48;;;;;;;4.43;2.72;;;19.70;91.80;;;;;;6245473;22;20063;-86
2022/05/02 11:31:01;;;;;;;4.28;2.17;;;19.10;92.20;;;;;;6273132;22;20003;-87
2022/05/02 11:37:13;;;;;;;4.82;2.30;;;19.60;91.60;;;;;;6271124;22;20091;-86
2022/05/02 11:40:06;;;;;;;4.20;2.05;;;20.20;91.20;;;;;;6272177;22;20611;-87
2022/05/02 11:42:59;;;;;;;3.53;2.00;;;20.20;91.10;;;;;;6225536;22;20007;-87
2022/05/02 11:46:08;;;;;;;4.03;2.17;;;20.00;90.90;;;;;;6254465;22;20031;-87
2022/05/02 11:49:07;;;;;;;2.70;1.55;;;20.50;90.20;;;;;;6279590;22;20092;-87
2022/05/02 11:51:44;;;;;;;2.63;1.35;;;20.00;90.60;;;;;;6278109;22;19999;-87
2022/05/02 11:54:56;;;;;;;4.43;1.70;;;19.80;90.00;;;;;;6277832;22;20019;-86
2022/05/02 11:58:08;;;;;;;3.85;1.60;;;19.70;90.70;;;;;;6243204;22;20007;-87
2022/05/02 12:00:46;;;;;;;3.60;1.83;;;19.60;90.30;;;;;;6244604;22;20380;-87
2022/05/02 12:03:36;;;;;;;3.13;1.60;;;19.40;90.60;;;;;;6244896;22;20069;-87
2022/05/02 12:06:14;;;;;;;4.40;2.25;;;19.80;90.80;;;;;;6240215;22;20016;-87
2022/05/02 12:12:08;;;;;;;3.65;2.30;;;21.40;90.80;;;;;;6245960;22;20090;-86
2022/05/02 12:15:24;;;;;;;3.80;1.92;;;21.90;87.10;;;;;;6245719;22;20313;-86
2022/05/02 12:17:51;;;;;;;3.55;1.58;;;21.80;86.40;;;;;;6202141;22;20000;-87
2022/05/02 12:20:33;;;;;;;3.42;1.40;;;21.90;87.50;;;;;;6276831;22;19996;-87
2022/05/02 12:23:06;;;;;;;3.95;2.40;;;22.40;86.80;;;;;;6248779;22;20481;-87
2022/05/02 12:26:20;;;;;;;3.72;1.77;;;21.80;84.90;;;;;;6247115;22;20438;-88
2022/05/02 12:33:00;;;;;;;3.80;1.73;;;22.30;84.80;;;;;;6229757;22;20008;-87
2022/05/02 12:35:53;;;;;;;3.95;1.85;;;22.40;84.20;;;;;;6253408;22;20003;-87
2022/05/02 12:38:46;;;;;;;3.42;1.70;;;22.30;84.80;;;;;;6258784;22;20007;-87
2022/05/02 12:41:20;;;;;;;3.00;1.52;;;22.00;85.00;;;;;;6249541;22;20087;-87
2022/05/02 12:44:13;;;;;;;4.35;1.45;;;21.30;85.50;;;;;;6276060;22;20044;-87
2022/05/02 12:46:58;;;;;;;2.60;1.60;;;21.20;86.40;;;;;;6246023;22;20326;-87
2022/05/02 12:50:25;;;;;;;3.38;1.70;;;20.80;88.40;;;;;;6274962;22;20008;-87
2022/05/02 12:52:56;;;;;;;3.03;1.52;;;21.30;86.30;;;;;;6120151;23;20192;-85
2022/05/02 12:55:50;;;;;;;3.85;2.08;;;21.40;85.80;;;;;;6096939;23;20508;-86
2022/05/02 13:02:06;;;;;;;2.55;1.30;;;22.10;83.80;;;;;;6121057;23;20064;-85
2022/05/02 13:04:55;;;;;;;2.88;1.48;;;21.80;85.20;;;;;;6095564;23;20010;-86
2022/05/02 13:07:36;;;;;;;4.38;1.30;;;21.40;86.40;;;;;;6238229;22;20030;-86
2022/05/02 13:10:40;;;;;;;2.33;1.30;;;21.10;86.30;;;;;;6247128;22;20430;-86
2022/05/02 13:13:52;;;;;;;3.90;1.80;;;21.10;86.70;;;;;;6194784;22;20119;-85
2022/05/02 13:20:43;;;;;;;3.03;1.38;;;20.40;87.60;;;;;;6158825;23;20125;-86
2022/05/02 13:23:47;;;;;;;2.90;1.45;;;20.50;87.50;;;;;;6145046;23;20058;-86
2022/05/02 13:26:40;;;;;;;2.75;1.38;;;20.80;85.20;;;;;;6211187;23;20012;-86
2022/05/02 13:29:38;;;;;;;2.72;1.27;;;20.80;85.20;;;;;;6185179;23;20013;-87
2022/05/02 13:32:56;;;;;;;2.75;1.40;;;20.80;84.90;;;;;;6209602;23;20049;-86
2022/05/02 13:39:18;;;;;;;2.85;1.20;;;20.50;84.30;;;;;;6179283;23;20015;-86
2022/05/02 13:42:26;;;;;;;;;;;;;;;;;;;;;
2022/05/02 13:52:29;;;;;;;3.45;1.30;;;20.40;86.10;;;;;;6196724;23;20447;-86
2022/05/02 13:55:24;;;;;;;2.33;1.03;;;20.70;87.50;;;;;;6205634;23;20005;-86
2022/05/02 14:11:13;;;;;;;;;;;;;;;;;;;;;
2022/05/02 14:50:30;;;;;;;1.77;1.00;;;21.80;80.80;;;;;;6176444;23;20111;-87
2022/05/02 14:59:13;;;;;;;;;;;;;;;;;;;;;
2022/05/02 15:20:19;;;;;;;4.72;1.20;;;22.50;77.20;;;;;;6271278;22;20591;-87
2022/05/02 15:24:23;;;;;;;;;;;;;;;;;;;;;
2022/05/02 15:27:15;;;;;;;;;;;;;;;;;;;;;
2022/05/02 15:39:49;;;;;;;2.55;1.17;;;22.10;77.20;;;;;;6271927;22;20396;-86
2022/05/02 15:42:34;;;;;;;2.10;1.00;;;22.40;78.80;;;;;;6244318;22;20012;-87
2022/05/02 15:45:29;;;;;;;2.20;1.10;;;22.00;78.40;;;;;;6238959;22;20464;-86
2022/05/02 15:48:49;;;;;;;2.13;1.13;;;21.80;78.20;;;;;;6265820;22;20003;-87
2022/05/02 15:52:08;;;;;;;2.88;1.20;;;21.60;78.10;;;;;;6244890;22;20003;-86
2022/05/02 15:55:15;;;;;;;2.72;1.35;;;21.70;78.60;;;;;;6269606;22;20007;-87
2022/05/02 15:57:44;;;;;;;2.47;1.20;;;21.50;80.80;;;;;;6242876;22;20018;-87
2022/05/02 16:00:23;;;;;;;2.45;1.20;;;21.40;80.00;;;;;;6241730;22;20006;-87
2022/05/02 16:04:14;;;;;;;;;;;;;;;;;;;;;
2022/05/02 16:06:35;;;;;;;3.25;1.02;;;21.00;81.90;;;;;;6114402;23;20005;-87
2022/05/02 16:12:30;;;;;;;3.53;1.33;;;20.70;82.70;;;;;;6099485;23;20125;-88
2022/05/02 16:15:04;;;;;;;2.97;1.63;;;20.40;82.80;;;;;;6170654;23;20080;-87
2022/05/02 16:17:43;;;;;;;2.65;1.50;;;20.30;83.60;;;;;;6182970;23;20004;-88
2022/05/02 16:20:26;;;;;;;3.03;1.38;;;20.10;84.70;;;;;;6209357;23;20024;-88
2022/05/02 16:23:16;;;;;;;3.17;1.70;;;19.90;84.90;;;;;;6204244;22;20023;-87
2022/05/02 16:26:03;;;;;;;2.28;1.30;;;19.80;85.50;;;;;;6273517;22;20000;-88
2022/05/02 16:32:12;;;;;;;3.60;1.60;;;19.50;85.70;;;;;;6270281;22;20011;-87
2022/05/02 16:35:40;;;;;;;2.90;1.40;;;19.50;86.30;;;;;;6244762;22;20010;-87
2022/05/02 16:38:10;;;;;;;3.20;1.50;;;19.50;87.50;;;;;;6088879;23;20005;-87
2022/05/02 16:40:43;;;;;;;3.15;1.70;;;19.30;88.30;;;;;;6273376;22;20004;-86
2022/05/02 16:43:25;;;;;;;3.85;1.50;;;19.40;88.00;;;;;;6275054;22;20003;-87
2022/05/02 16:46:03;;;;;;;2.47;1.20;;;19.40;87.50;;;;;;6249613;22;20446;-86
2022/05/02 16:48:38;;;;;;;2.08;1.02;;;19.20;88.10;;;;;;6253413;22;20011;-87
2022/05/02 16:54:51;;;;;;;3.17;1.67;;;19.10;88.90;;;;;;6290483;22;20007;-87
2022/05/02 16:57:35;;;;;;;3.20;1.50;;;19.00;89.00;;;;;;6259015;22;20350;-87
2022/05/02 17:00:24;;;;;;;2.88;1.70;;;19.00;89.30;;;;;;6275631;22;20478;-87
2022/05/02 17:02:53;;;;;;;5.63;1.70;;;18.90;90.00;;;;;;6273923;22;20134;-87
2022/05/02 17:06:27;;;;;;;2.72;1.50;;;18.70;90.40;;;;;;6274088;22;20011;-87
2022/05/02 17:09:51;;;;;;;2.80;1.20;;;18.80;90.10;;;;;;6271217;22;20007;-87
2022/05/02 17:13:07;;;;;;;2.08;1.08;;;18.70;90.30;;;;;;6122139;22;20389;-87
2022/05/02 17:15:34;;;;;;;1.80;1.17;;;18.60;89.20;;;;;;6180315;22;20350;-86
2022/05/02 17:18:29;;;;;;;4.35;1.20;;;18.60;89.60;;;;;;6245692;22;20057;-87
2022/05/02 17:20:57;;;;;;;3.30;1.58;;;18.50;90.60;;;;;;6273730;22;20379;-86
2022/05/02 17:23:53;;;;;;;3.55;1.50;;;18.50;90.00;;;;;;6246352;22;20022;-88
2022/05/02 17:26:20;;;;;;;3.83;1.70;;;18.40;90.20;;;;;;6245102;22;20003;-87
2022/05/02 17:28:56;;;;;;;3.17;1.30;;;18.30;90.50;;;;;;6246241;22;20007;-87
2022/05/02 17:31:24;;;;;;;2.60;1.27;;;18.20;90.40;;;;;;6246767;22;20060;-87
2022/05/02 17:33:56;;;;;;;2.45;1.27;;;18.10;91.10;;;;;;6273639;22;19996;-87
2022/05/02 17:41:10;;;;;;;2.80;1.50;;;18.10;91.40;;;;;;6106079;23;20002;-88
2022/05/02 17:47:13;;;;;;;5.53;1.80;;;17.90;91.60;;;;;;6043253;23;20011;-87
2022/05/02 17:54:07;;;;;;;5.20;2.08;;;17.60;92.20;;;;;;6096901;22;20014;-86
2022/05/02 17:57:08;;;;;;;4.72;1.75;;;17.40;92.70;;;;;;6248710;22;19996;-87
2022/05/02 17:59:50;;;;;;;3.92;1.80;;;17.30;93.00;;;;;;6248703;22;20007;-86
2022/05/02 18:02:22;;;;;;;3.90;1.83;;;17.40;92.90;;;;;;6276639;22;19996;-86
2022/05/02 18:05:33;;;;;;;3.45;2.17;;;17.20;93.40;;;;;;6247996;22;20014;-89
2022/05/02 18:11:02;;;;;;;4.07;2.17;;;17.00;94.00;;;;;;6274112;22;20000;-85
2022/05/02 18:17:11;;;;;;;4.32;2.03;;;16.90;94.60;;;;;;6268093;22;20061;-86
2022/05/02 18:20:14;;;;;;;3.80;1.95;;;16.90;94.90;;;;;;6247038;22;20014;-85
2022/05/02 18:23:28;;;;;;;3.88;2.20;;;16.80;95.00;;;;;;6239201;22;20057;-86
2022/05/02 18:26:56;;;;;;;;;;;;;;;;;;;;;
2022/05/02 18:30:25;;;;;;;;;;;;;;;;;;;;;
2022/05/02 18:40:29;;;;;;;4.63;2.47;;;16.40;96.60;;;;;;6029090;23;20077;-85
2022/05/02 18:56:46;;;;;;;5.93;3.00;;;15.90;98.30;;;;;;6091624;23;20061;-86
2022/05/02 18:59:55;;;;;;;4.85;2.80;;;15.90;98.70;;;;;;6093389;23;20092;-85
2022/05/02 19:03:11;;;;;;;4.88;2.30;;;15.70;98.80;;;;;;6220591;23;20004;-85
2022/05/02 19:09:29;;;;;;;4.68;2.45;;;15.70;99.60;;;;;;6242646;23;20381;-85
2022/05/02 19:12:13;;;;;;;4.47;2.58;;;15.60;99.90;;;;;;6245542;22;20000;-85
2022/05/02 19:33:05;;;;;;;4.40;2.45;;;15.10;99.90;;;;;;6275497;22;20011;-88
2022/05/02 20:26:12;;;;;;;5.75;2.10;;;14.60;99.90;;;;;;6269856;22;20339;-87
2022/05/02 20:37:26;;;;;;;4.10;1.98;;;14.50;99.90;;;;;;6242590;23;20270;-87
2022/05/02 20:39:53;;;;;;;3.47;1.85;;;14.50;99.90;;;;;;6246226;23;20039;-87
2022/05/02 20:42:29;;;;;;;3.83;2.30;;;14.50;99.90;;;;;;6247710;23;20004;-88
2022/05/02 20:45:04;;;;;;;3.67;2.00;;;14.50;99.90;;;;;;6254926;23;20000;-87
2022/05/02 20:47:45;;;;;;;4.90;1.63;;;14.40;99.90;;;;;;6262485;23;20068;-87
2022/05/02 20:50:11;;;;;;;4.38;1.88;;;14.30;99.90;;;;;;6246345;23;20110;-88
2022/05/02 20:52:39;;;;;;;4.53;1.92;;;14.30;99.90;;;;;;6247396;22;19996;-87
2022/05/02 20:55:05;;;;;;;3.85;1.80;;;14.10;99.90;;;;;;6246951;22;20084;-87
2022/05/02 20:57:33;;;;;;;3.88;2.28;;;14.10;99.90;;;;;;6245042;23;20008;-87
2022/05/02 20:59:59;;;;;;;3.85;2.00;;;14.10;99.90;;;;;;6250869;22;20004;-87
2022/05/02 21:02:25;;;;;;;6.00;2.25;;;14.00;99.90;;;;;;6251037;22;20004;-87
2022/05/02 21:04:51;;;;;;;6.05;2.22;;;14.00;99.90;;;;;;6252530;23;20007;-87
2022/05/02 21:07:17;;;;;;;4.53;1.95;;;14.10;99.90;;;;;;6244810;23;20030;-87
2022/05/02 21:09:43;;;;;;;4.22;2.20;;;13.90;99.90;;;;;;6246325;23;20028;-87